createdAt,value
2017-09-25T00:00:03.244Z,17.92
2017-09-25T00:00:31.274Z,17.98
2017-09-25T00:00:59.306Z,18.01
2017-09-25T00:01:27.352Z,17.95
2017-09-25T00:01:55.276Z,17.99
2017-09-25T00:02:23.206Z,17.99
2017-09-25T00:02:51.353Z,17.87
2017-09-25T00:03:19.512Z,17.94
2017-09-25T00:03:47.677Z,17.84
2017-09-25T00:04:15.805Z,17.84
2017-09-25T00:04:43.866Z,17.88
2017-09-25T00:05:12.017Z,17.81
2017-09-25T00:05:39.969Z,17.79
2017-09-25T00:06:08.110Z,17.9
2017-09-25T00:06:36.168Z,17.79
2017-09-25T00:07:04.202Z,17.79
2017-09-25T00:07:32.349Z,17.87
2017-09-25T00:08:00.296Z,17.84
2017-09-25T00:08:28.213Z,17.86
2017-09-25T00:08:56.268Z,17.79
2017-09-25T00:09:24.387Z,17.77
2017-09-25T00:09:52.405Z,17.84
2017-09-25T00:10:20.442Z,17.87
2017-09-25T00:10:48.605Z,17.86
2017-09-25T00:11:16.654Z,17.86
2017-09-25T00:11:44.789Z,17.87
2017-09-25T00:12:12.929Z,17.74
2017-09-25T00:12:40.982Z,17.74
2017-09-25T00:13:08.893Z,17.76
2017-09-25T00:13:36.754Z,17.8
2017-09-25T00:14:04.707Z,17.68
2017-09-25T00:14:32.772Z,17.73
2017-09-25T00:15:00.818Z,17.76
2017-09-25T00:15:29.103Z,17.84
2017-09-25T00:15:56.924Z,17.79
2017-09-25T00:16:24.860Z,17.84
2017-09-25T00:16:53.008Z,17.8
2017-09-25T00:17:21.023Z,17.87
2017-09-25T00:17:48.955Z,17.86
2017-09-25T00:18:17.118Z,17.9
2017-09-25T00:18:45.046Z,17.9
2017-09-25T00:19:12.978Z,17.9
2017-09-25T00:19:41.006Z,17.86
2017-09-25T00:20:09.143Z,17.87
2017-09-25T00:20:37.284Z,17.92
2017-09-25T00:21:05.393Z,17.83
2017-09-25T00:21:33.518Z,17.83
2017-09-25T00:22:01.387Z,17.83
2017-09-25T00:22:29.384Z,17.87
2017-09-25T00:22:57.321Z,17.9
2017-09-25T00:23:25.432Z,17.83
2017-09-25T00:23:53.650Z,17.8
2017-09-25T00:24:21.803Z,17.74
2017-09-25T00:24:49.746Z,17.79
2017-09-25T00:25:17.993Z,17.63
2017-09-25T00:25:46.076Z,17.63
2017-09-25T00:26:14.202Z,17.69
2017-09-25T00:26:42.241Z,17.6
2017-09-25T00:27:10.263Z,17.63
2017-09-25T00:27:38.099Z,17.55
2017-09-25T00:28:06.042Z,17.54
2017-09-25T00:28:34.183Z,17.54
2017-09-25T00:29:02.315Z,17.5
2017-09-25T00:29:30.431Z,17.52
2017-09-25T00:29:58.355Z,17.5
2017-09-25T00:30:26.793Z,17.5
2017-09-25T00:30:54.940Z,17.47
2017-09-25T00:31:22.801Z,17.47
2017-09-25T00:31:50.910Z,17.45
2017-09-25T00:32:18.938Z,17.46
2017-09-25T00:32:47.094Z,17.52
2017-09-25T00:33:15.223Z,17.45
2017-09-25T00:33:43.197Z,17.45
2017-09-25T00:34:11.349Z,17.4
2017-09-25T00:34:39.312Z,17.5
2017-09-25T00:35:07.151Z,17.49
2017-09-25T00:35:35.136Z,17.45
2017-09-25T00:36:03.052Z,17.46
2017-09-25T00:36:31.086Z,17.45
2017-09-25T00:36:59.135Z,17.49
2017-09-25T00:37:27.280Z,17.52
2017-09-25T00:37:55.291Z,17.47
2017-09-25T00:38:23.310Z,17.49
2017-09-25T00:38:51.352Z,17.5
2017-09-25T00:39:19.399Z,17.52
2017-09-25T00:39:47.521Z,17.46
2017-09-25T00:40:15.568Z,17.49
2017-09-25T00:40:43.532Z,17.52
2017-09-25T00:41:11.549Z,17.47
2017-09-25T00:41:39.707Z,17.49
2017-09-25T00:42:07.827Z,17.49
2017-09-25T00:42:35.969Z,17.52
2017-09-25T00:43:04.013Z,17.5
2017-09-25T00:43:31.957Z,17.54
2017-09-25T00:43:59.861Z,17.54
2017-09-25T00:44:27.798Z,17.54
2017-09-25T00:44:55.743Z,17.54
2017-09-25T00:45:23.879Z,17.54
2017-09-25T00:45:52.135Z,17.58
2017-09-25T00:46:20.204Z,17.57
2017-09-25T00:46:48.254Z,17.6
2017-09-25T00:47:16.280Z,17.63
2017-09-25T00:47:44.425Z,17.63
2017-09-25T00:48:12.391Z,17.66
2017-09-25T00:48:40.411Z,17.63
2017-09-25T00:49:08.544Z,17.63
2017-09-25T00:49:36.572Z,17.65
2017-09-25T00:50:04.707Z,17.65
2017-09-25T00:50:33.120Z,17.62
2017-09-25T00:51:01.157Z,17.6
2017-09-25T00:51:29.159Z,17.74
2017-09-25T00:51:57.294Z,17.66
2017-09-25T00:52:25.323Z,17.79
2017-09-25T00:52:53.250Z,17.8
2017-09-25T00:53:21.303Z,17.8
2017-09-25T00:53:49.345Z,17.71
2017-09-25T00:54:17.286Z,17.8
2017-09-25T00:54:45.250Z,17.8
2017-09-25T00:55:13.192Z,17.84
2017-09-25T00:55:41.261Z,17.84
2017-09-25T00:56:09.440Z,17.88
2017-09-25T00:56:37.467Z,17.92
2017-09-25T00:57:05.507Z,17.88
2017-09-25T00:57:33.438Z,17.86
2017-09-25T00:58:01.401Z,17.87
2017-09-25T00:58:29.433Z,17.86
2017-09-25T00:58:57.563Z,17.79
2017-09-25T00:59:25.507Z,17.8
2017-09-25T00:59:53.557Z,17.83
2017-09-25T01:00:21.677Z,17.69
2017-09-25T01:00:49.891Z,17.86
2017-09-25T01:01:17.905Z,17.87
2017-09-25T01:01:45.849Z,17.79
2017-09-25T01:02:13.986Z,17.8
2017-09-25T01:02:41.932Z,17.83
2017-09-25T01:03:09.736Z,17.79
2017-09-25T01:03:37.606Z,17.79
2017-09-25T01:04:05.650Z,17.79
2017-09-25T01:04:33.805Z,17.76
2017-09-25T01:05:01.924Z,17.8
2017-09-25T01:05:29.964Z,17.86
2017-09-25T01:05:57.908Z,17.87
2017-09-25T01:06:26.017Z,17.9
2017-09-25T01:06:54.139Z,17.86
2017-09-25T01:07:22.284Z,17.86
2017-09-25T01:07:50.327Z,17.8
2017-09-25T01:08:18.468Z,17.8
2017-09-25T01:08:46.513Z,17.86
2017-09-25T01:09:14.528Z,17.84
2017-09-25T01:09:42.336Z,17.87
2017-09-25T01:10:10.158Z,17.81
2017-09-25T01:10:38.318Z,17.77
2017-09-25T01:11:06.455Z,17.79
2017-09-25T01:11:34.595Z,17.86
2017-09-25T01:12:02.611Z,17.79
2017-09-25T01:12:30.740Z,17.69
2017-09-25T01:12:58.784Z,17.71
2017-09-25T01:13:26.810Z,17.74
2017-09-25T01:13:54.729Z,17.65
2017-09-25T01:14:22.883Z,17.65
2017-09-25T01:14:50.887Z,17.68
2017-09-25T01:15:19.040Z,17.65
2017-09-25T01:15:47.331Z,17.62
2017-09-25T01:16:15.350Z,17.6
2017-09-25T01:16:43.499Z,17.74
2017-09-25T01:17:11.542Z,17.77
2017-09-25T01:17:39.488Z,17.74
2017-09-25T01:18:07.435Z,17.86
2017-09-25T01:18:35.551Z,17.69
2017-09-25T01:19:03.706Z,17.77
2017-09-25T01:19:31.567Z,17.76
2017-09-25T01:19:59.499Z,17.79
2017-09-25T01:20:27.521Z,17.84
2017-09-25T01:20:55.455Z,17.79
2017-09-25T01:21:23.491Z,17.8
2017-09-25T01:21:51.514Z,17.8
2017-09-25T01:22:19.627Z,17.8
2017-09-25T01:22:47.769Z,17.79
2017-09-25T01:23:15.795Z,17.87
2017-09-25T01:23:43.731Z,17.8
2017-09-25T01:24:11.556Z,17.79
2017-09-25T01:24:39.677Z,17.79
2017-09-25T01:25:07.698Z,17.77
2017-09-25T01:25:35.843Z,17.87
2017-09-25T01:26:04.050Z,17.88
2017-09-25T01:26:32.009Z,17.81
2017-09-25T01:26:59.958Z,17.79
2017-09-25T01:27:27.799Z,17.76
2017-09-25T01:27:55.845Z,17.79
2017-09-25T01:28:23.975Z,17.83
2017-09-25T01:28:52.082Z,17.81
2017-09-25T01:29:20.127Z,17.9
2017-09-25T01:29:48.248Z,17.84
2017-09-25T01:30:16.306Z,17.83
2017-09-25T01:30:44.248Z,17.79
2017-09-25T01:31:12.288Z,17.83
2017-09-25T01:31:40.317Z,17.86
2017-09-25T01:32:08.253Z,17.84
2017-09-25T01:32:36.025Z,17.8
2017-09-25T01:33:04.167Z,17.87
2017-09-25T01:33:32.306Z,17.86
2017-09-25T01:34:00.427Z,17.87
2017-09-25T01:34:28.473Z,17.84
2017-09-25T01:34:56.605Z,17.9
2017-09-25T01:35:24.525Z,17.84
2017-09-25T01:35:52.589Z,17.9
2017-09-25T01:36:20.771Z,17.92
2017-09-25T01:36:48.795Z,17.9
2017-09-25T01:37:16.740Z,17.87
2017-09-25T01:37:44.866Z,17.9
2017-09-25T01:38:12.991Z,17.81
2017-09-25T01:38:40.813Z,17.79
2017-09-25T01:39:08.818Z,17.74
2017-09-25T01:39:36.745Z,17.8
2017-09-25T01:40:04.801Z,17.76
2017-09-25T01:40:32.949Z,17.63
2017-09-25T01:41:01.087Z,17.62
2017-09-25T01:41:29.133Z,17.6
2017-09-25T01:41:57.154Z,17.68
2017-09-25T01:42:25.186Z,17.66
2017-09-25T01:42:53.309Z,17.68
2017-09-25T01:43:21.352Z,17.71
2017-09-25T01:43:49.399Z,17.6
2017-09-25T01:44:17.315Z,17.69
2017-09-25T01:44:45.379Z,17.69
2017-09-25T01:45:13.395Z,17.63
2017-09-25T01:45:41.501Z,17.68
2017-09-25T01:46:09.413Z,17.66
2017-09-25T01:46:37.454Z,17.68
2017-09-25T01:47:05.482Z,17.66
2017-09-25T01:47:33.654Z,17.65
2017-09-25T01:48:01.815Z,17.71
2017-09-25T01:48:29.824Z,17.66
2017-09-25T01:48:57.753Z,17.58
2017-09-25T01:49:25.888Z,17.62
2017-09-25T01:49:53.807Z,17.6
2017-09-25T01:50:21.962Z,17.6
2017-09-25T01:50:49.805Z,17.62
2017-09-25T01:51:18.006Z,17.55
2017-09-25T01:51:45.958Z,17.52
2017-09-25T01:52:13.911Z,17.54
2017-09-25T01:52:42.027Z,17.54
2017-09-25T01:53:09.930Z,17.46
2017-09-25T01:53:38.055Z,17.46
2017-09-25T01:54:06.106Z,17.43
2017-09-25T01:54:34.055Z,17.4
2017-09-25T01:55:02.202Z,17.45
2017-09-25T01:55:30.243Z,17.38
2017-09-25T01:55:58.210Z,17.43
2017-09-25T01:56:26.355Z,17.32
2017-09-25T01:56:54.278Z,17.39
2017-09-25T01:57:22.392Z,17.3
2017-09-25T01:57:50.428Z,17.38
2017-09-25T01:58:18.465Z,17.39
2017-09-25T01:58:46.437Z,17.46
2017-09-25T01:59:14.487Z,17.35
2017-09-25T01:59:42.537Z,17.45
2017-09-25T02:00:10.640Z,17.35
2017-09-25T02:00:38.777Z,17.3
2017-09-25T02:01:06.907Z,17.32
2017-09-25T02:01:35.147Z,17.4
2017-09-25T02:02:03.104Z,17.32
2017-09-25T02:02:31.053Z,17.32
2017-09-25T02:02:58.969Z,17.32
2017-09-25T02:03:27.010Z,17.35
2017-09-25T02:03:55.156Z,17.31
2017-09-25T02:04:23.290Z,17.36
2017-09-25T02:04:51.342Z,17.31
2017-09-25T02:05:19.269Z,17.38
2017-09-25T02:05:47.194Z,17.3
2017-09-25T02:06:15.418Z,17.27
2017-09-25T02:06:43.473Z,17.31
2017-09-25T02:07:11.514Z,17.3
2017-09-25T02:07:39.434Z,17.43
2017-09-25T02:08:07.586Z,17.43
2017-09-25T02:08:35.619Z,17.4
2017-09-25T02:09:03.750Z,17.39
2017-09-25T02:09:31.892Z,17.36
2017-09-25T02:09:59.957Z,17.32
2017-09-25T02:10:28.010Z,17.36
2017-09-25T02:10:56.129Z,17.38
2017-09-25T02:11:24.331Z,17.38
2017-09-25T02:11:52.461Z,17.28
2017-09-25T02:12:20.487Z,17.35
2017-09-25T02:12:48.615Z,17.3
2017-09-25T02:13:16.640Z,17.28
2017-09-25T02:13:44.662Z,17.31
2017-09-25T02:14:12.577Z,17.35
2017-09-25T02:14:40.523Z,17.38
2017-09-25T02:15:08.680Z,17.4
2017-09-25T02:15:36.624Z,17.3
2017-09-25T02:16:04.691Z,17.32
2017-09-25T02:16:32.724Z,17.4
2017-09-25T02:17:00.870Z,17.38
2017-09-25T02:17:28.803Z,17.32
2017-09-25T02:17:56.762Z,17.32
2017-09-25T02:18:24.771Z,17.35
2017-09-25T02:18:52.948Z,17.35
2017-09-25T02:19:20.867Z,17.36
2017-09-25T02:19:48.999Z,17.32
2017-09-25T02:20:17.000Z,17.18
2017-09-25T02:20:44.915Z,17.38
2017-09-25T02:21:12.946Z,17.2
2017-09-25T02:21:41.007Z,17.2
2017-09-25T02:22:09.152Z,17.21
2017-09-25T02:22:37.038Z,17.21
2017-09-25T02:23:05.166Z,17.21
2017-09-25T02:23:33.085Z,17.21
2017-09-25T02:24:01.028Z,17.24
2017-09-25T02:24:29.033Z,17.24
2017-09-25T02:24:56.955Z,17.21
2017-09-25T02:25:24.992Z,17.24
2017-09-25T02:25:53.045Z,17.24
2017-09-25T02:26:21.101Z,17.28
2017-09-25T02:26:49.246Z,17.35
2017-09-25T02:27:17.267Z,17.22
2017-09-25T02:27:45.287Z,17.24
2017-09-25T02:28:13.332Z,17.31
2017-09-25T02:28:41.353Z,17.32
2017-09-25T02:29:09.395Z,17.25
2017-09-25T02:29:37.543Z,17.32
2017-09-25T02:30:05.677Z,17.28
2017-09-25T02:30:33.817Z,17.31
2017-09-25T02:31:01.745Z,17.3
2017-09-25T02:31:29.957Z,17.35
2017-09-25T02:31:57.992Z,17.3
2017-09-25T02:32:26.022Z,17.3
2017-09-25T02:32:54.157Z,17.36
2017-09-25T02:33:22.295Z,17.32
2017-09-25T02:33:50.420Z,17.38
2017-09-25T02:34:18.437Z,17.38
2017-09-25T02:34:46.608Z,17.25
2017-09-25T02:35:14.540Z,17.36
2017-09-25T02:35:42.672Z,17.3
2017-09-25T02:36:10.690Z,17.27
2017-09-25T02:36:39.124Z,17.35
2017-09-25T02:37:07.281Z,17.22
2017-09-25T02:37:35.317Z,17.24
2017-09-25T02:38:03.221Z,17.22
2017-09-25T02:38:31.281Z,17.21
2017-09-25T02:38:59.279Z,17.24
2017-09-25T02:39:27.312Z,17.24
2017-09-25T02:39:55.341Z,17.36
2017-09-25T02:40:23.359Z,17.2
2017-09-25T02:40:51.276Z,17.25
2017-09-25T02:41:19.391Z,17.38
2017-09-25T02:41:47.660Z,17.36
2017-09-25T02:42:15.380Z,17.31
2017-09-25T02:42:43.408Z,17.36
2017-09-25T02:43:11.332Z,17.32
2017-09-25T02:43:39.471Z,17.36
2017-09-25T02:44:07.632Z,17.32
2017-09-25T02:44:35.684Z,17.36
2017-09-25T02:45:03.801Z,17.32
2017-09-25T02:45:31.876Z,17.25
2017-09-25T02:46:00.006Z,17.35
2017-09-25T02:46:28.025Z,17.22
2017-09-25T02:46:56.413Z,17.21
2017-09-25T02:47:24.570Z,17.2
2017-09-25T02:47:52.411Z,17.21
2017-09-25T02:48:20.490Z,17.27
2017-09-25T02:48:48.570Z,17.22
2017-09-25T02:49:16.609Z,17.22
2017-09-25T02:49:44.649Z,17.21
2017-09-25T02:50:12.791Z,17.25
2017-09-25T02:50:40.835Z,17.24
2017-09-25T02:51:08.960Z,17.24
2017-09-25T02:51:37.041Z,17.09
2017-09-25T02:52:05.257Z,17.17
2017-09-25T02:52:33.384Z,17.12
2017-09-25T02:53:01.523Z,17.12
2017-09-25T02:53:29.553Z,17.18
2017-09-25T02:53:57.475Z,17.21
2017-09-25T02:54:25.615Z,17.1
2017-09-25T02:54:53.745Z,17.09
2017-09-25T02:55:21.872Z,17.09
2017-09-25T02:55:49.889Z,17.05
2017-09-25T02:56:17.911Z,17.1
2017-09-25T02:56:46.038Z,17.06
2017-09-25T02:57:14.159Z,17.03
2017-09-25T02:57:42.208Z,16.91
2017-09-25T02:58:10.136Z,16.94
2017-09-25T02:58:38.152Z,16.95
2017-09-25T02:59:06.193Z,16.88
2017-09-25T02:59:34.242Z,16.82
2017-09-25T03:00:02.285Z,16.81
2017-09-25T03:00:30.260Z,16.91
2017-09-25T03:00:58.171Z,16.77
2017-09-25T03:01:26.231Z,16.82
2017-09-25T03:01:54.398Z,16.81
2017-09-25T03:02:22.442Z,16.69
2017-09-25T03:02:50.495Z,16.74
2017-09-25T03:03:18.622Z,16.73
2017-09-25T03:03:46.636Z,16.74
2017-09-25T03:04:14.688Z,16.73
2017-09-25T03:04:42.740Z,16.69
2017-09-25T03:05:10.576Z,16.74
2017-09-25T03:05:38.210Z,16.7
2017-09-25T03:06:06.321Z,16.74
2017-09-25T03:06:34.376Z,16.66
2017-09-25T03:07:02.602Z,16.74
2017-09-25T03:07:30.632Z,16.73
2017-09-25T03:07:58.748Z,16.67
2017-09-25T03:08:26.872Z,16.7
2017-09-25T03:08:54.998Z,16.73
2017-09-25T03:09:23.105Z,16.7
2017-09-25T03:09:51.241Z,16.7
2017-09-25T03:10:19.168Z,16.81
2017-09-25T03:10:47.302Z,16.67
2017-09-25T03:11:15.316Z,16.76
2017-09-25T03:11:43.317Z,16.62
2017-09-25T03:12:11.331Z,16.7
2017-09-25T03:12:39.179Z,16.66
2017-09-25T03:13:07.347Z,16.72
2017-09-25T03:13:35.409Z,16.67
2017-09-25T03:14:03.327Z,16.74
2017-09-25T03:14:31.375Z,16.7
2017-09-25T03:14:59.322Z,16.7
2017-09-25T03:15:27.430Z,16.7
2017-09-25T03:15:55.588Z,16.74
2017-09-25T03:16:23.608Z,16.73
2017-09-25T03:16:51.536Z,16.7
2017-09-25T03:17:19.704Z,16.65
2017-09-25T03:17:47.510Z,16.73
2017-09-25T03:18:15.537Z,16.72
2017-09-25T03:18:43.662Z,16.72
2017-09-25T03:19:11.807Z,16.7
2017-09-25T03:19:39.923Z,16.7
2017-09-25T03:20:07.961Z,16.69
2017-09-25T03:20:35.909Z,16.73
2017-09-25T03:21:03.967Z,16.72
2017-09-25T03:21:32.107Z,16.77
2017-09-25T03:22:00.379Z,16.77
2017-09-25T03:22:28.509Z,16.76
2017-09-25T03:22:56.230Z,16.7
2017-09-25T03:23:24.041Z,16.76
2017-09-25T03:23:52.085Z,16.8
2017-09-25T03:24:19.909Z,16.73
2017-09-25T03:24:47.942Z,16.74
2017-09-25T03:25:16.076Z,16.7
2017-09-25T03:25:43.938Z,16.69
2017-09-25T03:26:11.855Z,16.73
2017-09-25T03:26:39.792Z,16.76
2017-09-25T03:27:08.197Z,16.69
2017-09-25T03:27:36.125Z,16.65
2017-09-25T03:28:04.194Z,16.69
2017-09-25T03:28:32.121Z,16.72
2017-09-25T03:29:00.164Z,16.7
2017-09-25T03:29:28.285Z,16.74
2017-09-25T03:29:56.315Z,16.72
2017-09-25T03:30:24.349Z,16.7
2017-09-25T03:30:52.411Z,16.76
2017-09-25T03:31:20.239Z,16.69
2017-09-25T03:31:48.306Z,16.69
2017-09-25T03:32:16.655Z,16.73
2017-09-25T03:32:44.603Z,16.62
2017-09-25T03:33:12.526Z,16.58
2017-09-25T03:33:40.563Z,16.59
2017-09-25T03:34:08.582Z,16.65
2017-09-25T03:34:36.523Z,16.72
2017-09-25T03:35:04.565Z,16.66
2017-09-25T03:35:32.494Z,16.65
2017-09-25T03:36:00.519Z,16.72
2017-09-25T03:36:28.540Z,16.74
2017-09-25T03:36:56.566Z,16.63
2017-09-25T03:37:24.685Z,16.65
2017-09-25T03:37:52.621Z,16.62
2017-09-25T03:38:20.675Z,16.73
2017-09-25T03:38:48.606Z,16.59
2017-09-25T03:39:16.449Z,16.74
2017-09-25T03:39:44.482Z,16.66
2017-09-25T03:40:12.414Z,16.63
2017-09-25T03:40:40.466Z,16.65
2017-09-25T03:41:08.607Z,16.69
2017-09-25T03:41:36.665Z,16.66
2017-09-25T03:42:04.794Z,16.55
2017-09-25T03:42:32.986Z,16.63
2017-09-25T03:43:00.793Z,16.63
2017-09-25T03:43:28.942Z,16.69
2017-09-25T03:43:56.957Z,16.67
2017-09-25T03:44:24.979Z,16.67
2017-09-25T03:44:53.012Z,16.49
2017-09-25T03:45:20.948Z,16.54
2017-09-25T03:45:49.058Z,16.55
2017-09-25T03:46:16.992Z,16.51
2017-09-25T03:46:44.952Z,16.57
2017-09-25T03:47:13.076Z,16.55
2017-09-25T03:47:41.123Z,16.54
2017-09-25T03:48:09.178Z,16.59
2017-09-25T03:48:37.204Z,16.62
2017-09-25T03:49:05.234Z,16.65
2017-09-25T03:49:33.374Z,16.67
2017-09-25T03:50:01.306Z,16.67
2017-09-25T03:50:29.137Z,16.58
2017-09-25T03:50:57.070Z,16.73
2017-09-25T03:51:25.019Z,16.72
2017-09-25T03:51:53.043Z,16.63
2017-09-25T03:52:21.289Z,16.67
2017-09-25T03:52:49.418Z,16.73
2017-09-25T03:53:17.570Z,16.76
2017-09-25T03:53:45.606Z,16.67
2017-09-25T03:54:13.432Z,16.77
2017-09-25T03:54:41.473Z,16.74
2017-09-25T03:55:09.583Z,16.67
2017-09-25T03:55:37.531Z,16.7
2017-09-25T03:56:05.561Z,16.72
2017-09-25T03:56:33.698Z,16.74
2017-09-25T03:57:01.674Z,16.7
2017-09-25T03:57:29.796Z,16.63
2017-09-25T03:57:57.938Z,16.74
2017-09-25T03:58:25.980Z,16.69
2017-09-25T03:58:54.101Z,16.73
2017-09-25T03:59:22.139Z,16.73
2017-09-25T03:59:50.046Z,16.73
2017-09-25T04:00:18.087Z,16.72
2017-09-25T04:00:46.155Z,16.59
2017-09-25T04:01:14.310Z,16.66
2017-09-25T04:01:42.341Z,16.59
2017-09-25T04:02:10.258Z,16.69
2017-09-25T04:02:38.511Z,16.7
2017-09-25T04:03:06.612Z,16.72
2017-09-25T04:03:34.674Z,16.67
2017-09-25T04:04:02.844Z,16.62
2017-09-25T04:04:30.874Z,16.57
2017-09-25T04:04:58.686Z,16.62
2017-09-25T04:05:26.611Z,16.66
2017-09-25T04:05:54.760Z,16.62
2017-09-25T04:06:22.671Z,16.55
2017-09-25T04:06:50.614Z,16.58
2017-09-25T04:07:18.624Z,16.57
2017-09-25T04:07:46.667Z,16.57
2017-09-25T04:08:14.595Z,16.55
2017-09-25T04:08:42.736Z,16.55
2017-09-25T04:09:10.743Z,16.62
2017-09-25T04:09:38.686Z,16.57
2017-09-25T04:10:06.800Z,16.55
2017-09-25T04:10:34.833Z,16.48
2017-09-25T04:11:02.754Z,16.48
2017-09-25T04:11:30.881Z,16.47
2017-09-25T04:11:58.811Z,16.49
2017-09-25T04:12:26.930Z,16.49
2017-09-25T04:12:54.867Z,16.51
2017-09-25T04:13:22.783Z,16.48
2017-09-25T04:13:50.901Z,16.48
2017-09-25T04:14:18.751Z,16.51
2017-09-25T04:14:46.386Z,16.39
2017-09-25T04:15:14.220Z,16.51
2017-09-25T04:15:42.266Z,16.52
2017-09-25T04:16:10.411Z,16.49
2017-09-25T04:16:38.464Z,16.48
2017-09-25T04:17:06.616Z,16.51
2017-09-25T04:17:34.837Z,16.54
2017-09-25T04:18:02.960Z,16.49
2017-09-25T04:18:30.880Z,16.58
2017-09-25T04:18:58.737Z,16.52
2017-09-25T04:19:26.879Z,16.51
2017-09-25T04:19:54.907Z,16.62
2017-09-25T04:20:23.033Z,16.67
2017-09-25T04:20:51.151Z,16.58
2017-09-25T04:21:19.178Z,16.58
2017-09-25T04:21:47.118Z,16.69
2017-09-25T04:22:14.949Z,16.74
2017-09-25T04:22:42.982Z,16.72
2017-09-25T04:23:10.924Z,16.72
2017-09-25T04:23:38.872Z,16.7
2017-09-25T04:24:07.022Z,16.8
2017-09-25T04:24:35.138Z,16.77
2017-09-25T04:25:03.064Z,16.7
2017-09-25T04:25:31.109Z,16.66
2017-09-25T04:25:59.159Z,16.65
2017-09-25T04:26:27.198Z,16.59
2017-09-25T04:26:55.339Z,16.57
2017-09-25T04:27:23.382Z,16.59
2017-09-25T04:27:51.532Z,16.66
2017-09-25T04:28:19.569Z,16.58
2017-09-25T04:28:47.618Z,16.58
2017-09-25T04:29:15.435Z,16.58
2017-09-25T04:29:43.463Z,16.57
2017-09-25T04:30:11.516Z,16.54
2017-09-25T04:30:39.571Z,16.54
2017-09-25T04:31:07.523Z,16.49
2017-09-25T04:31:35.459Z,16.54
2017-09-25T04:32:03.393Z,16.51
2017-09-25T04:32:31.520Z,16.55
2017-09-25T04:32:59.757Z,16.55
2017-09-25T04:33:27.910Z,16.51
2017-09-25T04:33:55.747Z,16.52
2017-09-25T04:34:23.863Z,16.49
2017-09-25T04:34:51.994Z,16.51
2017-09-25T04:35:20.154Z,16.54
2017-09-25T04:35:48.095Z,16.49
2017-09-25T04:36:16.139Z,16.49
2017-09-25T04:36:44.313Z,16.47
2017-09-25T04:37:12.428Z,16.47
2017-09-25T04:37:40.549Z,16.48
2017-09-25T04:38:08.582Z,16.49
2017-09-25T04:38:36.521Z,16.52
2017-09-25T04:39:04.652Z,16.51
2017-09-25T04:39:32.782Z,16.49
2017-09-25T04:40:00.823Z,16.54
2017-09-25T04:40:28.857Z,16.49
2017-09-25T04:40:56.913Z,16.54
2017-09-25T04:41:24.969Z,16.55
2017-09-25T04:41:52.909Z,16.54
2017-09-25T04:42:20.745Z,16.59
2017-09-25T04:42:49.197Z,16.57
2017-09-25T04:43:17.151Z,16.58
2017-09-25T04:43:45.202Z,16.55
2017-09-25T04:44:13.368Z,16.55
2017-09-25T04:44:41.428Z,16.59
2017-09-25T04:45:09.399Z,16.58
2017-09-25T04:45:37.452Z,16.55
2017-09-25T04:46:05.444Z,16.52
2017-09-25T04:46:33.287Z,16.58
2017-09-25T04:47:01.309Z,16.49
2017-09-25T04:47:29.324Z,16.59
2017-09-25T04:47:57.497Z,16.59
2017-09-25T04:48:25.507Z,16.59
2017-09-25T04:48:53.575Z,16.55
2017-09-25T04:49:21.740Z,16.57
2017-09-25T04:49:49.700Z,16.55
2017-09-25T04:50:17.658Z,16.55
2017-09-25T04:50:45.700Z,16.52
2017-09-25T04:51:13.736Z,16.54
2017-09-25T04:51:41.795Z,16.62
2017-09-25T04:52:09.839Z,16.59
2017-09-25T04:52:37.878Z,16.65
2017-09-25T04:53:06.028Z,16.62
2017-09-25T04:53:34.048Z,16.67
2017-09-25T04:54:02.090Z,16.62
2017-09-25T04:54:30.217Z,16.66
2017-09-25T04:54:58.247Z,16.7
2017-09-25T04:55:26.348Z,16.65
2017-09-25T04:55:54.400Z,16.74
2017-09-25T04:56:22.353Z,16.74
2017-09-25T04:56:50.279Z,16.73
2017-09-25T04:57:18.236Z,16.72
2017-09-25T04:57:46.271Z,16.74
2017-09-25T04:58:14.493Z,16.63
2017-09-25T04:58:42.557Z,16.73
2017-09-25T04:59:10.707Z,16.76
2017-09-25T04:59:38.736Z,16.67
2017-09-25T05:00:06.554Z,16.81
2017-09-25T05:00:34.607Z,16.7
2017-09-25T05:01:02.534Z,16.74
2017-09-25T05:01:30.577Z,16.8
2017-09-25T05:01:58.509Z,16.67
2017-09-25T05:02:26.452Z,16.74
2017-09-25T05:02:54.586Z,16.7
2017-09-25T05:03:22.717Z,16.76
2017-09-25T05:03:50.573Z,16.7
2017-09-25T05:04:18.602Z,16.76
2017-09-25T05:04:46.750Z,16.7
2017-09-25T05:05:14.787Z,16.76
2017-09-25T05:05:42.926Z,16.7
2017-09-25T05:06:11.036Z,16.77
2017-09-25T05:06:39.216Z,16.7
2017-09-25T05:07:07.379Z,16.73
2017-09-25T05:07:35.517Z,16.72
2017-09-25T05:08:03.767Z,16.7
2017-09-25T05:08:31.925Z,16.77
2017-09-25T05:08:59.759Z,16.69
2017-09-25T05:09:27.793Z,16.69
2017-09-25T05:09:55.740Z,16.74
2017-09-25T05:10:23.776Z,16.74
2017-09-25T05:10:51.717Z,16.74
2017-09-25T05:11:19.734Z,16.73
2017-09-25T05:11:47.674Z,16.73
2017-09-25T05:12:15.704Z,16.74
2017-09-25T05:12:43.846Z,16.69
2017-09-25T05:13:12.002Z,16.7
2017-09-25T05:13:39.942Z,16.73
2017-09-25T05:14:07.967Z,16.74
2017-09-25T05:14:36.000Z,16.73
2017-09-25T05:15:03.952Z,16.8
2017-09-25T05:15:31.968Z,16.69
2017-09-25T05:15:59.912Z,16.72
2017-09-25T05:16:27.860Z,16.66
2017-09-25T05:16:56.007Z,16.69
2017-09-25T05:17:23.928Z,16.66
2017-09-25T05:17:51.969Z,16.7
2017-09-25T05:18:20.006Z,16.77
2017-09-25T05:18:48.154Z,16.74
2017-09-25T05:19:16.108Z,16.8
2017-09-25T05:19:44.264Z,16.72
2017-09-25T05:20:12.297Z,16.69
2017-09-25T05:20:40.312Z,16.73
2017-09-25T05:21:08.244Z,16.69
2017-09-25T05:21:36.178Z,16.66
2017-09-25T05:22:04.132Z,16.66
2017-09-25T05:22:32.267Z,16.59
2017-09-25T05:23:00.402Z,16.66
2017-09-25T05:23:28.766Z,16.63
2017-09-25T05:23:56.818Z,16.63
2017-09-25T05:24:24.970Z,16.65
2017-09-25T05:24:53.106Z,16.66
2017-09-25T05:25:21.141Z,16.67
2017-09-25T05:25:49.074Z,16.65
2017-09-25T05:26:17.240Z,16.66
2017-09-25T05:26:45.282Z,16.62
2017-09-25T05:27:13.234Z,16.55
2017-09-25T05:27:41.158Z,16.54
2017-09-25T05:28:09.390Z,16.55
2017-09-25T05:28:37.410Z,16.55
2017-09-25T05:29:05.388Z,16.51
2017-09-25T05:29:33.448Z,16.51
2017-09-25T05:30:01.409Z,16.49
2017-09-25T05:30:29.442Z,16.48
2017-09-25T05:30:57.484Z,16.49
2017-09-25T05:31:25.543Z,16.49
2017-09-25T05:31:53.463Z,16.52
2017-09-25T05:32:21.519Z,16.51
2017-09-25T05:32:49.490Z,16.51
2017-09-25T05:33:17.927Z,16.55
2017-09-25T05:33:45.902Z,16.47
2017-09-25T05:34:13.855Z,16.49
2017-09-25T05:34:41.786Z,16.51
2017-09-25T05:35:09.829Z,16.49
2017-09-25T05:35:37.960Z,16.52
2017-09-25T05:36:05.888Z,16.52
2017-09-25T05:36:33.921Z,16.49
2017-09-25T05:37:01.968Z,16.47
2017-09-25T05:37:29.940Z,16.52
2017-09-25T05:37:58.086Z,16.45
2017-09-25T05:38:26.301Z,16.51
2017-09-25T05:38:54.232Z,16.48
2017-09-25T05:39:22.142Z,16.55
2017-09-25T05:39:50.098Z,16.49
2017-09-25T05:40:18.012Z,16.49
2017-09-25T05:40:46.026Z,16.51
2017-09-25T05:41:13.977Z,16.48
2017-09-25T05:41:42.129Z,16.52
2017-09-25T05:42:10.283Z,16.49
2017-09-25T05:42:38.225Z,16.49
2017-09-25T05:43:06.160Z,16.52
2017-09-25T05:43:34.292Z,16.49
2017-09-25T05:44:02.400Z,16.52
2017-09-25T05:44:30.326Z,16.52
2017-09-25T05:44:58.372Z,16.52
2017-09-25T05:45:26.304Z,16.49
2017-09-25T05:45:54.542Z,16.48
2017-09-25T05:46:22.601Z,16.51
2017-09-25T05:46:50.543Z,16.51
2017-09-25T05:47:18.564Z,16.49
2017-09-25T05:47:46.689Z,16.51
2017-09-25T05:48:14.662Z,16.47
2017-09-25T05:48:42.768Z,16.49
2017-09-25T05:49:10.789Z,16.48
2017-09-25T05:49:38.923Z,16.51
2017-09-25T05:50:06.911Z,16.45
2017-09-25T05:50:34.970Z,16.44
2017-09-25T05:51:03.081Z,16.47
2017-09-25T05:51:31.117Z,16.47
2017-09-25T05:51:59.063Z,16.51
2017-09-25T05:52:27.076Z,16.49
2017-09-25T05:52:55.227Z,16.44
2017-09-25T05:53:23.332Z,16.47
2017-09-25T05:53:51.384Z,16.48
2017-09-25T05:54:19.321Z,16.49
2017-09-25T05:54:47.280Z,16.49
2017-09-25T05:55:15.221Z,16.47
2017-09-25T05:55:43.146Z,16.47
2017-09-25T05:56:11.286Z,16.48
2017-09-25T05:56:39.421Z,16.47
2017-09-25T05:57:07.357Z,16.45
2017-09-25T05:57:35.286Z,16.49
2017-09-25T05:58:03.227Z,16.48
2017-09-25T05:58:31.432Z,16.51
2017-09-25T05:58:59.484Z,16.51
2017-09-25T05:59:27.522Z,16.48
2017-09-25T05:59:55.641Z,16.48
2017-09-25T06:00:23.689Z,16.45
2017-09-25T06:00:51.775Z,16.54
2017-09-25T06:01:19.933Z,16.52
2017-09-25T06:01:47.966Z,16.49
2017-09-25T06:02:16.016Z,16.51